createdAt,value
2022-10-28T00:00:02.141Z,695.28
2022-10-28T00:01:02.134Z,694.51
2022-10-28T00:02:02.218Z,694.68
2022-10-28T00:03:02.228Z,694.98
2022-10-28T00:04:02.110Z,694.89
2022-10-28T00:05:02.089Z,694.88
2022-10-28T00:06:02.064Z,694.67
2022-10-28T00:07:02.069Z,694.84
2022-10-28T00:08:02.046Z,695.02
2022-10-28T00:09:02.044Z,694.81
2022-10-28T00:10:02.017Z,694.61
2022-10-28T00:11:02.017Z,694.75
2022-10-28T00:12:02.008Z,694.41
2022-10-28T00:13:01.986Z,694.35
2022-10-28T00:14:01.976Z,694.17
2022-10-28T00:15:01.976Z,694.18
2022-10-28T00:16:01.938Z,694.31
2022-10-28T00:17:01.952Z,694.55
2022-10-28T00:18:01.974Z,694.55
2022-10-28T00:19:01.917Z,695.11
2022-10-28T00:20:01.898Z,695.47
2022-10-28T00:21:01.898Z,695.62
2022-10-28T00:22:01.908Z,695.76
2022-10-28T00:23:01.869Z,695.71
2022-10-28T00:24:01.856Z,695.52
2022-10-28T00:25:01.852Z,696.03
2022-10-28T00:26:01.828Z,695.78
2022-10-28T00:27:01.870Z,695.97
2022-10-28T00:28:01.820Z,695.92
2022-10-28T00:29:01.800Z,695.98
2022-10-28T00:30:01.771Z,696.22
2022-10-28T00:31:01.779Z,696.26
2022-10-28T00:32:01.881Z,696.59
2022-10-28T00:33:01.741Z,696.45
2022-10-28T00:34:01.730Z,696.91
2022-10-28T00:35:01.729Z,696.85
2022-10-28T00:36:08.961Z,697.28
2022-10-28T00:37:01.743Z,697.62
2022-10-28T00:38:01.722Z,697.74
2022-10-28T00:39:01.682Z,697.80
2022-10-28T00:40:01.659Z,697.91
2022-10-28T00:41:01.652Z,697.69
2022-10-28T00:42:01.654Z,697.18
2022-10-28T00:43:01.655Z,696.42
2022-10-28T00:44:01.613Z,695.95
2022-10-28T00:45:01.606Z,695.56
2022-10-28T00:46:01.624Z,695.51
2022-10-28T00:47:01.610Z,695.32
2022-10-28T00:48:01.566Z,694.82
2022-10-28T00:49:01.554Z,694.65
2022-10-28T00:50:01.552Z,694.24
2022-10-28T00:51:01.546Z,693.82
2022-10-28T00:52:01.538Z,693.70
2022-10-28T00:53:01.532Z,693.48
2022-10-28T00:54:01.498Z,693.06
2022-10-28T00:55:01.489Z,692.79
2022-10-28T00:56:01.471Z,692.03
2022-10-28T00:57:01.478Z,691.53
2022-10-28T00:58:01.488Z,690.86
2022-10-28T00:59:01.439Z,690.48
2022-10-28T01:00:01.427Z,689.92
2022-10-28T01:01:01.424Z,689.81
2022-10-28T01:02:01.517Z,689.35
2022-10-28T01:03:01.458Z,689.14
2022-10-28T01:04:01.375Z,688.83
2022-10-28T01:05:01.368Z,689.12
2022-10-28T01:06:01.378Z,689.43
2022-10-28T01:07:01.359Z,689.81
2022-10-28T01:08:01.347Z,690.40
2022-10-28T01:09:01.323Z,691.04
2022-10-28T01:10:01.309Z,691.49
2022-10-28T01:11:01.300Z,691.47
2022-10-28T01:12:01.298Z,691.19
2022-10-28T01:13:01.284Z,691.46
2022-10-28T01:14:01.302Z,691.95
2022-10-28T01:15:01.251Z,692.30
2022-10-28T01:16:01.243Z,692.17
2022-10-28T01:17:01.254Z,692.22
2022-10-28T01:18:01.212Z,692.57
2022-10-28T01:19:01.212Z,693.14
2022-10-28T01:20:01.230Z,693.21
2022-10-28T01:21:01.191Z,692.96
2022-10-28T01:22:01.182Z,693.54
2022-10-28T01:23:01.170Z,693.30
2022-10-28T01:24:01.152Z,693.16
2022-10-28T01:25:01.131Z,692.88
2022-10-28T01:26:01.122Z,692.07
2022-10-28T01:27:01.131Z,691.37
2022-10-28T01:28:01.097Z,690.48
2022-10-28T01:29:01.094Z,690.50
2022-10-28T01:30:01.073Z,691.66
2022-10-28T01:31:01.083Z,692.02
2022-10-28T01:32:01.063Z,692.35
2022-10-28T01:33:01.060Z,693.03
2022-10-28T01:34:01.025Z,693.04
2022-10-28T01:35:01.035Z,692.46
2022-10-28T01:36:01.034Z,692.72
2022-10-28T01:37:01.004Z,692.81
2022-10-28T01:38:01.001Z,693.17
2022-10-28T01:39:00.966Z,693.45
2022-10-28T01:40:00.973Z,693.58
2022-10-28T01:41:00.960Z,694.43
2022-10-28T01:42:00.957Z,694.11
2022-10-28T01:43:00.926Z,693.47
2022-10-28T01:44:00.929Z,693.47
2022-10-28T01:45:00.897Z,693.26
2022-10-28T01:46:00.891Z,693.35
2022-10-28T01:47:00.898Z,693.73
2022-10-28T01:48:00.869Z,693.85
2022-10-28T01:49:00.850Z,693.67
2022-10-28T01:50:00.858Z,693.47
2022-10-28T01:51:00.839Z,693.83
2022-10-28T01:52:00.836Z,693.72
2022-10-28T01:53:00.799Z,694.00
2022-10-28T01:54:00.809Z,694.34
2022-10-28T01:55:00.790Z,694.37
2022-10-28T01:56:00.782Z,694.64
2022-10-28T01:57:00.793Z,694.62
2022-10-28T01:58:00.767Z,694.54
2022-10-28T01:59:00.739Z,694.95
2022-10-28T02:00:00.740Z,695.26
2022-10-28T02:01:00.796Z,695.50
2022-10-28T02:03:00.690Z,693.33
2022-10-28T02:04:00.692Z,693.23
2022-10-28T02:05:00.661Z,692.67
2022-10-28T02:06:00.656Z,692.97
2022-10-28T02:07:00.663Z,692.81
2022-10-28T02:08:00.632Z,692.53
2022-10-28T02:09:00.630Z,692.33
2022-10-28T02:10:00.624Z,692.43
2022-10-28T02:11:00.631Z,692.32
2022-10-28T02:12:00.592Z,692.26
2022-10-28T02:13:00.585Z,692.25
2022-10-28T02:14:00.576Z,692.24
2022-10-28T02:15:00.609Z,691.94
2022-10-28T02:16:00.565Z,691.57
2022-10-28T02:17:00.575Z,691.39
2022-10-28T02:18:00.524Z,691.32
2022-10-28T02:19:00.513Z,691.10
2022-10-28T02:20:00.494Z,690.62
2022-10-28T02:21:00.495Z,690.60
2022-10-28T02:22:00.493Z,690.04
2022-10-28T02:23:00.465Z,689.72
2022-10-28T02:24:00.460Z,689.62
2022-10-28T02:25:00.458Z,690.24
2022-10-28T02:26:00.435Z,689.40
2022-10-28T02:27:00.425Z,688.58
2022-10-28T02:28:00.452Z,688.29
2022-10-28T02:29:00.396Z,687.08
2022-10-28T02:30:00.377Z,686.82
2022-10-28T02:31:00.381Z,686.37
2022-10-28T02:32:00.399Z,687.13
2022-10-28T02:33:00.347Z,687.23
2022-10-28T02:34:00.339Z,686.64
2022-10-28T02:35:00.349Z,685.66
2022-10-28T02:36:00.318Z,685.42
2022-10-28T02:37:00.334Z,685.44
2022-10-28T02:38:00.299Z,685.48
2022-10-28T02:39:00.279Z,685.51
2022-10-28T02:40:00.283Z,686.29
2022-10-28T02:41:00.271Z,686.76
2022-10-28T02:42:00.279Z,686.88
2022-10-28T02:43:00.231Z,687.45
2022-10-28T02:44:00.232Z,687.84
2022-10-28T02:45:01.987Z,687.24
2022-10-28T02:46:00.209Z,686.87
2022-10-28T02:47:00.200Z,687.75
2022-10-28T02:48:00.193Z,688.90
2022-10-28T02:49:00.160Z,688.91
2022-10-28T02:50:00.164Z,689.40
2022-10-28T02:51:00.150Z,689.87
2022-10-28T02:52:00.160Z,690.06
2022-10-28T02:53:00.123Z,690.41
2022-10-28T02:54:00.123Z,690.90
2022-10-28T02:55:00.129Z,691.95
2022-10-28T02:56:00.103Z,692.57
2022-10-28T02:57:00.090Z,692.55
2022-10-28T02:58:00.079Z,692.62
2022-10-28T02:59:00.056Z,692.54
2022-10-28T03:00:00.045Z,692.89
2022-10-28T03:01:00.069Z,693.40
2022-10-28T03:02:00.119Z,694.04
2022-10-28T03:03:00.021Z,694.91
2022-10-28T03:04:00.026Z,695.55
2022-10-28T03:04:59.983Z,696.59
2022-10-28T03:05:59.995Z,697.39
2022-10-28T03:06:59.964Z,698.62
2022-10-28T03:07:59.957Z,699.35
2022-10-28T03:08:59.961Z,700.27
2022-10-28T03:09:59.925Z,700.41
2022-10-28T03:10:59.938Z,700.68
2022-10-28T03:11:59.930Z,701.05
2022-10-28T03:12:59.897Z,701.92
2022-10-28T03:13:59.885Z,703.02
2022-10-28T03:14:59.909Z,703.94
2022-10-28T03:15:59.857Z,704.88
2022-10-28T03:16:59.868Z,705.52
2022-10-28T03:17:59.848Z,706.15
2022-10-28T03:18:59.871Z,706.34
2022-10-28T03:19:59.807Z,705.78
2022-10-28T03:20:59.828Z,704.80
2022-10-28T03:21:59.789Z,703.46
2022-10-28T03:22:59.786Z,702.63
2022-10-28T03:23:59.778Z,702.30
2022-10-28T03:24:59.762Z,701.45
2022-10-28T03:25:59.758Z,700.53
2022-10-28T03:26:59.739Z,699.20
2022-10-28T03:27:59.729Z,698.87
2022-10-28T03:28:59.719Z,698.84
2022-10-28T03:29:59.703Z,699.18
2022-10-28T03:30:59.720Z,699.45
2022-10-28T03:31:59.683Z,699.81
2022-10-28T03:32:59.678Z,700.45
2022-10-28T03:33:59.651Z,700.89
2022-10-28T03:34:59.667Z,701.72
2022-10-28T03:35:59.659Z,702.02
2022-10-28T03:36:59.615Z,702.82
2022-10-28T03:37:59.616Z,703.61
2022-10-28T03:38:59.613Z,704.24
2022-10-28T03:39:59.582Z,704.68
2022-10-28T03:40:59.591Z,704.89
2022-10-28T03:41:59.565Z,704.55
2022-10-28T03:42:59.542Z,705.52
2022-10-28T03:43:59.534Z,705.79
2022-10-28T03:44:59.523Z,706.09
2022-10-28T03:45:59.541Z,705.94
2022-10-28T03:46:59.515Z,705.81
2022-10-28T03:47:59.492Z,705.63
2022-10-28T03:48:59.493Z,705.44
2022-10-28T03:49:59.465Z,705.40
2022-10-28T03:50:59.463Z,705.05
2022-10-28T03:51:59.455Z,705.46
2022-10-28T03:52:59.433Z,706.05
2022-10-28T03:53:59.414Z,706.83
2022-10-28T03:54:59.421Z,707.82
2022-10-28T03:55:59.414Z,707.99
2022-10-28T03:56:59.385Z,708.70
2022-10-28T03:57:59.376Z,708.91
2022-10-28T03:58:59.368Z,708.80
2022-10-28T03:59:59.350Z,708.86
2022-10-28T04:00:59.394Z,709.05
2022-10-28T04:01:59.502Z,709.14
2022-10-28T04:02:59.320Z,709.33
2022-10-28T04:03:59.299Z,708.69
2022-10-28T04:04:59.290Z,708.35
2022-10-28T04:05:59.297Z,708.52
2022-10-28T04:06:59.265Z,709.00
2022-10-28T04:07:59.249Z,709.79
2022-10-28T04:08:59.258Z,710.00
2022-10-28T04:09:59.241Z,710.55
2022-10-28T04:10:59.228Z,710.68
2022-10-28T04:11:59.243Z,710.35
2022-10-28T04:12:59.236Z,709.86
2022-10-28T04:13:59.179Z,709.49
2022-10-28T04:14:59.224Z,709.06
2022-10-28T04:15:59.181Z,709.59
2022-10-28T04:16:59.141Z,709.77
2022-10-28T04:17:59.130Z,709.64
2022-10-28T04:18:59.142Z,708.74
2022-10-28T04:19:59.119Z,707.44
2022-10-28T04:20:59.122Z,707.71
2022-10-28T04:21:59.090Z,708.08
2022-10-28T04:22:59.463Z,709.13
2022-10-28T04:23:59.061Z,709.94
2022-10-28T04:24:59.067Z,710.24
2022-10-28T04:25:59.070Z,710.29
2022-10-28T04:26:59.040Z,710.33
2022-10-28T04:27:59.002Z,710.56
2022-10-28T04:28:59.006Z,711.19
2022-10-28T04:29:59.000Z,711.72
2022-10-28T04:30:58.988Z,712.59
2022-10-28T04:31:58.994Z,713.77
2022-10-28T04:33:07.220Z,714.14
2022-10-28T04:33:58.929Z,715.12
2022-10-28T04:34:58.949Z,716.35
2022-10-28T04:35:58.929Z,717.23
2022-10-28T04:36:58.909Z,718.36
2022-10-28T04:37:58.899Z,719.25
2022-10-28T04:38:58.916Z,719.42
2022-10-28T04:39:58.872Z,719.28
2022-10-28T04:40:58.892Z,719.50
2022-10-28T04:41:58.877Z,719.25
2022-10-28T04:42:58.843Z,719.08
2022-10-28T04:43:58.840Z,719.03
2022-10-28T04:44:58.820Z,719.77
2022-10-28T04:45:58.844Z,719.57
2022-10-28T04:46:58.783Z,720.18
2022-10-28T04:47:58.791Z,720.86
2022-10-28T04:48:58.771Z,721.80
2022-10-28T04:49:58.752Z,722.45
2022-10-28T04:50:58.775Z,722.93
2022-10-28T04:51:58.755Z,723.84
2022-10-28T04:52:58.732Z,725.03
2022-10-28T04:53:59.455Z,726.39
2022-10-28T04:54:58.714Z,727.68
2022-10-28T04:55:58.712Z,728.99
2022-10-28T04:56:58.704Z,729.90
2022-10-28T04:57:58.678Z,730.46
2022-10-28T04:58:58.659Z,731.38
2022-10-28T04:59:58.626Z,731.95
2022-10-28T05:00:58.700Z,732.38
2022-10-28T05:01:58.773Z,732.66
2022-10-28T05:02:58.850Z,732.31
2022-10-28T05:03:58.595Z,731.62
2022-10-28T05:04:58.596Z,731.25
2022-10-28T05:05:58.596Z,731.42
2022-10-28T05:06:58.557Z,731.60
2022-10-28T05:07:58.546Z,732.00
2022-10-28T05:08:58.528Z,732.26
2022-10-28T05:09:58.526Z,731.25
2022-10-28T05:10:58.520Z,730.45
2022-10-28T05:11:58.508Z,729.70
2022-10-28T05:12:58.502Z,727.71
2022-10-28T05:13:58.479Z,726.37
2022-10-28T05:14:58.467Z,724.67
2022-10-28T05:15:58.477Z,724.32
2022-10-28T05:16:58.448Z,723.95
2022-10-28T05:17:58.446Z,724.06
2022-10-28T05:18:58.412Z,724.69
2022-10-28T05:19:58.397Z,725.83
2022-10-28T05:20:58.420Z,726.90
2022-10-28T05:21:58.379Z,727.03
2022-10-28T05:22:58.567Z,726.74
2022-10-28T05:23:58.378Z,726.14
2022-10-28T05:24:58.368Z,725.52
2022-10-28T05:25:58.359Z,725.71
2022-10-28T05:26:58.321Z,725.24
2022-10-28T05:27:58.310Z,725.30
2022-10-28T05:28:58.325Z,724.33
2022-10-28T05:29:58.290Z,723.99
2022-10-28T05:30:58.292Z,722.90
2022-10-28T05:31:58.342Z,721.73
2022-10-28T05:32:58.448Z,721.98
2022-10-28T05:33:58.242Z,722.28
2022-10-28T05:34:58.228Z,721.95
2022-10-28T05:35:58.234Z,721.90
2022-10-28T05:36:58.202Z,721.88
2022-10-28T05:37:58.211Z,722.03
2022-10-28T05:38:58.200Z,722.16
2022-10-28T05:39:58.183Z,722.53
2022-10-28T05:40:58.185Z,722.39
2022-10-28T05:41:58.161Z,722.34
2022-10-28T05:42:58.133Z,722.15
2022-10-28T05:43:58.119Z,722.13
2022-10-28T05:44:58.132Z,722.41
2022-10-28T05:45:58.123Z,722.38
2022-10-28T05:46:58.074Z,722.37
2022-10-28T05:47:58.085Z,722.48
2022-10-28T05:48:58.067Z,722.53
2022-10-28T05:49:58.046Z,722.93
2022-10-28T05:50:58.057Z,723.45
2022-10-28T05:51:58.028Z,723.55
2022-10-28T05:52:58.015Z,723.87
2022-10-28T05:53:58.011Z,724.15
2022-10-28T05:54:58.000Z,724.26
2022-10-28T05:55:57.999Z,724.48
2022-10-28T05:56:57.966Z,724.44
2022-10-28T05:57:58.242Z,724.15
2022-10-28T05:58:57.957Z,723.80
2022-10-28T05:59:57.951Z,724.02
2022-10-28T06:00:57.936Z,723.71
2022-10-28T06:01:58.005Z,723.81
2022-10-28T06:02:57.897Z,724.17
2022-10-28T06:03:57.958Z,724.34
2022-10-28T06:04:57.888Z,724.52
2022-10-28T06:05:57.893Z,724.86
2022-10-28T06:06:57.851Z,725.44
2022-10-28T06:07:57.838Z,725.40
2022-10-28T06:08:57.838Z,725.79
2022-10-28T06:09:57.829Z,725.88
2022-10-28T06:10:56.281Z,725.91
2022-10-28T06:11:56.266Z,725.90
2022-10-28T06:12:56.255Z,725.99
2022-10-28T06:13:56.225Z,726.08
2022-10-28T06:14:56.227Z,726.35
2022-10-28T06:15:56.218Z,726.82
2022-10-28T06:16:56.201Z,727.36
2022-10-28T06:17:56.192Z,727.70
2022-10-28T06:18:56.192Z,727.95
2022-10-28T06:19:56.183Z,728.60
2022-10-28T06:20:56.175Z,728.56
2022-10-28T06:21:56.177Z,728.53
2022-10-28T06:22:56.308Z,728.56
2022-10-28T06:23:56.116Z,728.64
2022-10-28T06:24:56.127Z,728.89
2022-10-28T06:26:56.090Z,729.01
2022-10-28T06:27:56.331Z,729.52
2022-10-28T06:28:56.085Z,729.66
2022-10-28T06:29:56.079Z,729.62
2022-10-28T06:30:56.066Z,729.87
2022-10-28T06:31:56.034Z,730.02
2022-10-28T06:32:56.027Z,730.32
2022-10-28T06:33:56.036Z,730.66
2022-10-28T06:34:56.009Z,730.72
2022-10-28T06:35:56.000Z,729.48
2022-10-28T06:36:55.982Z,728.20
2022-10-28T06:37:56.232Z,727.62
2022-10-28T06:38:55.970Z,727.62
2022-10-28T06:39:55.972Z,727.73
2022-10-28T06:40:56.227Z,727.43
2022-10-28T06:41:55.947Z,727.81
2022-10-28T06:42:55.921Z,727.87
2022-10-28T06:43:55.900Z,728.16
2022-10-28T06:44:55.890Z,728.14
2022-10-28T06:45:55.885Z,728.36
2022-10-28T06:46:57.416Z,729.00
2022-10-28T06:47:57.377Z,729.43
2022-10-28T06:48:57.358Z,730.22
2022-10-28T06:49:57.338Z,730.69
2022-10-28T06:50:57.348Z,731.15
2022-10-28T06:51:57.348Z,731.94
2022-10-28T06:52:57.329Z,732.66
2022-10-28T06:53:57.315Z,733.17
2022-10-28T06:54:57.294Z,733.70
2022-10-28T06:55:57.284Z,734.36
2022-10-28T06:56:57.276Z,734.61
2022-10-28T06:57:57.491Z,735.11
2022-10-28T06:58:57.256Z,735.48
2022-10-28T06:59:57.255Z,735.57
2022-10-28T07:00:57.290Z,735.74
2022-10-28T07:01:57.514Z,735.61
2022-10-28T07:02:57.469Z,735.20
2022-10-28T07:03:57.196Z,734.92
2022-10-28T07:04:57.209Z,734.28
2022-10-28T07:05:57.407Z,733.35
2022-10-28T07:06:57.173Z,732.56
2022-10-28T07:07:57.289Z,732.28
2022-10-28T07:08:57.158Z,732.34
2022-10-28T07:09:57.132Z,732.68
2022-10-28T07:10:57.130Z,733.12
2022-10-28T07:11:59.732Z,733.48
2022-10-28T07:12:58.529Z,734.22
2022-10-28T07:13:57.083Z,735.22
2022-10-28T07:14:57.093Z,736.11
2022-10-28T07:15:57.080Z,737.12
2022-10-28T07:16:57.068Z,737.97
2022-10-28T07:17:57.041Z,737.87
2022-10-28T07:18:57.040Z,737.88
2022-10-28T07:19:57.060Z,738.09
2022-10-28T07:20:57.031Z,737.60
2022-10-28T07:21:57.081Z,736.70
2022-10-28T07:22:57.017Z,736.48
2022-10-28T07:23:56.981Z,735.50
2022-10-28T07:24:56.984Z,734.02
2022-10-28T07:25:56.954Z,732.80
2022-10-28T07:26:57.889Z,731.81
2022-10-28T07:27:57.358Z,730.26
2022-10-28T07:28:56.943Z,728.54
2022-10-28T07:29:56.915Z,727.45
2022-10-28T07:30:56.936Z,726.41
2022-10-28T07:31:56.911Z,725.59
2022-10-28T07:32:57.143Z,725.37
2022-10-28T07:33:56.873Z,723.77
2022-10-28T07:34:56.859Z,722.21
2022-10-28T07:35:56.841Z,721.07
2022-10-28T07:36:56.846Z,720.30
2022-10-28T07:37:56.822Z,718.92
2022-10-28T07:38:57.072Z,718.31
2022-10-28T07:39:57.081Z,717.74
2022-10-28T07:40:56.803Z,717.96
2022-10-28T07:41:56.786Z,717.82
2022-10-28T07:42:56.996Z,717.90
2022-10-28T07:43:56.744Z,718.42
2022-10-28T07:44:56.742Z,719.35
2022-10-28T07:45:56.734Z,719.09
2022-10-28T07:46:58.188Z,720.41
2022-10-28T07:47:56.753Z,721.95
2022-10-28T07:48:56.700Z,722.74
2022-10-28T07:49:56.791Z,723.66
2022-10-28T07:50:56.732Z,723.76
2022-10-28T07:51:56.681Z,722.69
2022-10-28T07:52:57.007Z,721.61
2022-10-28T07:53:56.643Z,721.01
2022-10-28T07:54:56.623Z,720.32
2022-10-28T07:55:56.717Z,719.91
2022-10-28T07:56:56.592Z,719.11
2022-10-28T07:57:56.773Z,718.19
2022-10-28T07:58:56.569Z,719.09
2022-10-28T07:59:56.560Z,718.81
2022-10-28T08:00:56.614Z,719.36
2022-10-28T08:01:56.583Z,719.71
2022-10-28T08:02:56.513Z,719.33
2022-10-28T08:03:56.517Z,718.34
2022-10-28T08:04:56.513Z,717.94
2022-10-28T08:05:59.605Z,716.98
2022-10-28T08:06:56.480Z,717.09
2022-10-28T08:07:56.852Z,717.83
2022-10-28T08:08:56.453Z,717.64
2022-10-28T08:09:56.420Z,717.67
2022-10-28T08:10:56.435Z,718.29
2022-10-28T08:11:56.402Z,720.04
2022-10-28T08:12:56.389Z,720.66
2022-10-28T08:13:56.369Z,722.23
2022-10-28T08:14:56.396Z,724.44
2022-10-28T08:15:56.372Z,727.81
2022-10-28T08:16:56.342Z,731.57
2022-10-28T08:17:56.703Z,736.40
2022-10-28T08:18:56.309Z,740.26
2022-10-28T08:19:56.302Z,745.10
2022-10-28T08:20:56.365Z,748.83
2022-10-28T08:21:56.570Z,751.15
2022-10-28T08:22:56.615Z,754.26
2022-10-28T08:23:56.242Z,758.19
2022-10-28T08:24:56.252Z,761.44
2022-10-28T08:25:56.259Z,765.67
2022-10-28T08:26:56.466Z,769.75
2022-10-28T08:27:56.207Z,773.85
2022-10-28T08:28:56.497Z,774.54
2022-10-28T08:29:56.192Z,774.61
2022-10-28T08:31:07.649Z,769.46
2022-10-28T08:31:57.179Z,767.51
2022-10-28T08:32:56.462Z,762.16
2022-10-28T08:33:56.163Z,756.35
2022-10-28T08:34:56.139Z,752.16
2022-10-28T08:35:56.377Z,749.04
2022-10-28T08:36:56.188Z,747.59
2022-10-28T08:37:56.701Z,747.51
2022-10-28T08:38:56.125Z,747.00
2022-10-28T08:39:56.092Z,746.90
2022-10-28T08:40:56.079Z,745.97
2022-10-28T08:41:56.062Z,743.79
2022-10-28T08:42:56.436Z,741.67
2022-10-28T08:43:58.006Z,740.14
2022-10-28T08:44:56.033Z,737.66
2022-10-28T08:45:56.304Z,733.85
2022-10-28T08:46:56.014Z,732.18
2022-10-28T08:47:56.490Z,731.73
2022-10-28T08:48:55.985Z,732.76
2022-10-28T08:49:55.987Z,733.32
2022-10-28T08:50:55.966Z,734.64
2022-10-28T08:51:55.962Z,737.13
2022-10-28T08:52:56.431Z,738.95
2022-10-28T08:53:55.930Z,737.91
2022-10-28T08:54:55.959Z,730.36
2022-10-28T08:55:55.918Z,721.22
2022-10-28T08:56:55.894Z,714.38
2022-10-28T08:57:55.906Z,707.70
2022-10-28T08:58:55.881Z,701.38
2022-10-28T08:59:55.860Z,699.48
2022-10-28T09:00:55.877Z,706.41
2022-10-28T09:02:56.076Z,694.29
2022-10-28T09:03:55.813Z,688.53
2022-10-28T09:04:55.854Z,687.63
2022-10-28T09:05:55.803Z,696.95
2022-10-28T09:06:55.780Z,701.05
2022-10-28T09:07:55.934Z,697.53
2022-10-28T09:08:55.777Z,694.65
2022-10-28T09:09:55.751Z,694.09
2022-10-28T09:10:55.755Z,703.37
2022-10-28T09:11:55.752Z,698.52
2022-10-28T09:12:56.145Z,700.01
2022-10-28T09:13:55.701Z,701.61
2022-10-28T09:14:55.706Z,691.34
2022-10-28T09:15:55.704Z,690.23
2022-10-28T09:16:55.675Z,693.06
2022-10-28T09:17:55.994Z,686.92
2022-10-28T09:18:55.657Z,685.80
2022-10-28T09:19:55.657Z,685.64
2022-10-28T09:20:55.662Z,685.68
2022-10-28T09:21:55.652Z,685.83
2022-10-28T09:22:56.052Z,686.74
2022-10-28T09:23:55.596Z,687.40
2022-10-28T09:24:55.605Z,692.24
2022-10-28T09:25:55.586Z,692.18
2022-10-28T09:26:55.568Z,693.26
2022-10-28T09:27:55.944Z,694.17
2022-10-28T09:28:55.630Z,695.81
2022-10-28T09:29:55.538Z,704.64
2022-10-28T09:30:55.511Z,705.76
2022-10-28T09:31:55.517Z,722.73
2022-10-28T09:32:55.835Z,724.73
2022-10-28T09:33:55.489Z,719.03
2022-10-28T09:34:55.498Z,708.59
2022-10-28T09:35:55.468Z,699.12
2022-10-28T09:36:55.452Z,704.93
2022-10-28T09:37:55.452Z,711.70
2022-10-28T09:38:55.436Z,710.19
2022-10-28T09:39:55.449Z,706.56
2022-10-28T09:40:55.401Z,706.17
2022-10-28T09:41:55.411Z,702.77
2022-10-28T09:42:55.401Z,701.37
2022-10-28T09:43:55.378Z,697.57
2022-10-28T09:44:55.373Z,692.01
2022-10-28T09:45:55.384Z,692.85
2022-10-28T09:46:55.348Z,684.15
2022-10-28T09:47:55.674Z,681.93
2022-10-28T09:48:55.334Z,678.04
2022-10-28T09:49:55.313Z,674.53
2022-10-28T09:50:55.316Z,673.31
2022-10-28T09:51:55.292Z,681.67
2022-10-28T09:52:55.297Z,677.23
2022-10-28T09:53:55.260Z,679.88
2022-10-28T09:54:55.266Z,676.14
2022-10-28T09:55:55.296Z,676.98
2022-10-28T09:56:55.239Z,675.96
2022-10-28T09:57:55.647Z,675.96
2022-10-28T09:58:55.218Z,680.08
2022-10-28T09:59:55.210Z,673.60
2022-10-28T10:00:55.206Z,668.72
2022-10-28T10:01:55.347Z,664.67
2022-10-28T10:02:55.305Z,661.41
2022-10-28T10:03:55.157Z,662.31
2022-10-28T10:04:55.138Z,664.03
2022-10-28T10:05:55.157Z,669.13
2022-10-28T10:06:55.117Z,676.56
2022-10-28T10:07:55.596Z,675.58
2022-10-28T10:08:55.109Z,682.71
2022-10-28T10:09:55.199Z,685.26
2022-10-28T10:10:55.098Z,689.33
2022-10-28T10:11:55.079Z,692.28
2022-10-28T10:12:55.464Z,694.53
2022-10-28T10:13:55.041Z,696.13
2022-10-28T10:14:55.030Z,695.18
2022-10-28T10:15:55.039Z,698.08
2022-10-28T10:16:55.004Z,703.18
2022-10-28T10:17:55.000Z,707.10
2022-10-28T10:18:55.000Z,705.00
2022-10-28T10:19:54.993Z,702.93
2022-10-28T10:20:54.991Z,698.33
2022-10-28T10:21:54.973Z,666.97
2022-10-28T10:22:55.317Z,663.81
2022-10-28T10:23:54.932Z,664.20
2022-10-28T10:24:54.915Z,667.46
2022-10-28T10:25:54.923Z,670.49
2022-10-28T10:26:54.893Z,674.74
2022-10-28T10:27:55.284Z,676.76
2022-10-28T10:28:55.152Z,676.98
2022-10-28T10:29:54.873Z,677.40
2022-10-28T10:30:54.864Z,678.78
2022-10-28T10:31:54.951Z,680.05
2022-10-28T10:32:54.834Z,679.29
2022-10-28T10:33:54.816Z,680.19
2022-10-28T10:34:54.806Z,682.62
2022-10-28T10:35:59.773Z,682.20
2022-10-28T10:36:55.985Z,681.08
2022-10-28T10:37:55.118Z,679.64
2022-10-28T10:38:54.789Z,679.95
2022-10-28T10:39:54.757Z,681.55
2022-10-28T10:40:54.788Z,683.37
2022-10-28T10:41:54.748Z,684.68
2022-10-28T10:43:13.101Z,685.02
2022-10-28T10:43:55.773Z,682.66
2022-10-28T10:44:54.698Z,682.44
2022-10-28T10:45:54.702Z,681.67
2022-10-28T10:46:54.681Z,682.17
2022-10-28T10:47:54.994Z,682.36
2022-10-28T10:48:54.659Z,683.57
2022-10-28T10:49:54.671Z,684.62
2022-10-28T10:50:54.639Z,687.31
2022-10-28T10:51:54.680Z,693.36
2022-10-28T10:52:55.062Z,702.53
2022-10-28T10:53:54.611Z,694.23
2022-10-28T10:54:54.580Z,692.78
2022-10-28T10:55:54.601Z,688.39
2022-10-28T10:56:54.876Z,682.25
2022-10-28T10:57:54.798Z,679.78
2022-10-28T10:58:54.542Z,678.40
2022-10-28T10:59:54.540Z,677.19
2022-10-28T11:00:54.540Z,677.58
2022-10-28T11:01:54.631Z,672.79
2022-10-28T11:02:56.111Z,667.98
2022-10-28T11:03:54.493Z,664.83
2022-10-28T11:04:54.458Z,662.91
2022-10-28T11:06:05.372Z,660.88
2022-10-28T11:06:55.440Z,666.65
2022-10-28T11:07:54.626Z,662.42
2022-10-28T11:08:54.430Z,660.00
2022-10-28T11:09:54.414Z,660.90
2022-10-28T11:10:54.407Z,657.62
2022-10-28T11:11:54.402Z,660.95
2022-10-28T11:12:54.709Z,664.21
2022-10-28T11:13:54.365Z,659.12
2022-10-28T11:14:54.344Z,661.04
2022-10-28T11:15:54.386Z,661.77
2022-10-28T11:16:54.318Z,664.27
2022-10-28T11:17:54.598Z,666.86
2022-10-28T11:18:54.311Z,670.47
2022-10-28T11:19:54.307Z,670.44
2022-10-28T11:20:54.294Z,678.01
2022-10-28T11:21:54.287Z,674.38
2022-10-28T11:22:54.812Z,688.74
2022-10-28T11:23:54.250Z,691.88
2022-10-28T11:24:54.230Z,707.74
2022-10-28T11:25:54.261Z,695.45
2022-10-28T11:26:54.225Z,702.17
2022-10-28T11:27:56.539Z,678.64
2022-10-28T11:28:55.199Z,672.11
2022-10-28T11:29:54.187Z,671.97
2022-10-28T11:30:54.311Z,666.14
2022-10-28T11:31:54.162Z,663.44
2022-10-28T11:33:08.167Z,667.79
2022-10-28T11:33:55.122Z,675.80
2022-10-28T11:34:54.202Z,673.67
2022-10-28T11:35:54.119Z,677.97
2022-10-28T11:36:54.097Z,672.59
2022-10-28T11:37:54.075Z,679.52
2022-10-28T11:38:54.081Z,673.51
2022-10-28T11:39:54.078Z,664.25
2022-10-28T11:40:54.077Z,675.58
2022-10-28T11:41:54.034Z,660.54
2022-10-28T11:42:54.368Z,645.16
2022-10-28T11:43:55.339Z,639.11
2022-10-28T11:44:54.091Z,635.67
2022-10-28T11:45:53.997Z,634.72
2022-10-28T11:46:53.985Z,631.52
2022-10-28T11:47:54.189Z,631.94
2022-10-28T11:48:53.967Z,632.21
2022-10-28T11:49:53.948Z,631.43
2022-10-28T11:50:53.956Z,629.82
2022-10-28T11:51:53.917Z,632.92
2022-10-28T11:52:53.926Z,629.10
2022-10-28T11:53:53.894Z,626.63
2022-10-28T11:54:53.959Z,625.34
2022-10-28T11:55:53.887Z,621.73
2022-10-28T11:56:53.886Z,619.78
2022-10-28T11:57:54.017Z,621.18
2022-10-28T11:58:53.849Z,624.91
2022-10-28T11:59:53.889Z,629.31
2022-10-28T12:00:53.823Z,627.11
2022-10-28T12:01:53.980Z,624.88
2022-10-28T12:02:53.870Z,622.37
2022-10-28T12:03:53.794Z,623.16
2022-10-28T12:04:53.856Z,625.29
2022-10-28T12:05:53.790Z,628.15
2022-10-28T12:06:53.751Z,633.38
2022-10-28T12:07:53.748Z,633.74
2022-10-28T12:08:53.765Z,633.24
2022-10-28T12:09:53.773Z,630.32
2022-10-28T12:10:53.702Z,629.71
2022-10-28T12:12:54.010Z,628.58
2022-10-28T12:13:53.714Z,628.49
2022-10-28T12:14:53.710Z,627.99
2022-10-28T12:15:53.688Z,626.65
2022-10-28T12:16:53.633Z,626.91
2022-10-28T12:17:53.901Z,625.98
2022-10-28T12:18:53.622Z,624.61
2022-10-28T12:19:53.614Z,624.23
2022-10-28T12:20:53.594Z,625.05
2022-10-28T12:21:53.592Z,623.40
2022-10-28T12:22:53.899Z,620.98
2022-10-28T12:23:53.576Z,609.02
2022-10-28T12:24:53.771Z,610.90
2022-10-28T12:25:53.555Z,612.13
2022-10-28T12:26:53.524Z,611.50
2022-10-28T12:27:53.516Z,612.21
2022-10-28T12:28:53.497Z,613.33
2022-10-28T12:29:53.497Z,615.35
2022-10-28T12:30:53.506Z,616.80
2022-10-28T12:31:53.494Z,617.47